Time;durP1;ratioP1;P1;durP2;ratioP2;P2;SDS_P1;SDS_P2;PMS_P1;PMS_P2;Temp;Humidity;BMP_temperature;BMP_pressure;BME280_temperature;BME280_humidity;BME280_pressure;Samples;Min_cycle;Max_cycle;Signal;HPM_P1;HPM_P2
2021/04/25 00:01:52;;;;;;;7.37;4.07;;;7.50;99.90;;;;;;5028869;28;20215;-53
2021/04/25 00:04:18;;;;;;;8.70;4.17;;;7.50;99.90;;;;;;5030402;28;20201;-53
2021/04/25 00:06:45;;;;;;;8.70;4.10;;;7.50;99.90;;;;;;5033917;28;20274;-53
2021/04/25 00:09:12;;;;;;;11.07;4.33;;;7.40;99.90;;;;;;5032334;28;20232;-53
2021/04/25 00:11:40;;;;;;;7.33;3.90;;;7.40;99.90;;;;;;5034920;28;20591;-53
2021/04/25 00:14:07;;;;;;;8.70;4.00;;;7.20;99.90;;;;;;5032180;28;20410;-53
2021/04/25 00:16:34;;;;;;;6.87;4.10;;;7.40;99.90;;;;;;5031279;28;20231;-53
2021/04/25 00:19:00;;;;;;;7.37;4.13;;;7.30;99.90;;;;;;5033849;28;20626;-53
2021/04/25 00:21:28;;;;;;;11.67;4.40;;;7.20;99.90;;;;;;5031766;28;20340;-53
2021/04/25 00:23:58;;;;;;;7.13;4.80;;;7.30;99.90;;;;;;5027387;28;20351;-53
2021/04/25 00:26:25;;;;;;;12.43;4.13;;;7.10;99.90;;;;;;5034901;28;20581;-53
2021/04/25 00:28:51;;;;;;;5.07;3.73;;;7.20;99.90;;;;;;5035402;28;20332;-53
2021/04/25 00:31:18;;;;;;;9.97;3.97;;;7.10;99.90;;;;;;5028505;28;20230;-53
2021/04/25 00:33:44;;;;;;;8.27;4.03;;;7.10;99.90;;;;;;5028852;28;20243;-52
2021/04/25 00:36:11;;;;;;;6.50;3.80;;;7.10;99.90;;;;;;5029238;28;20306;-53
2021/04/25 00:38:37;;;;;;;6.20;3.90;;;7.10;99.90;;;;;;5029907;28;20275;-53
2021/04/25 00:41:06;;;;;;;10.23;4.80;;;7.00;99.90;;;;;;5033809;28;20732;-53
2021/04/25 00:43:34;;;;;;;7.43;4.13;;;7.00;99.90;;;;;;5031567;28;20199;-53
2021/04/25 00:46:01;;;;;;;8.23;4.47;;;7.00;99.90;;;;;;5035205;28;20294;-53
2021/04/25 00:48:27;;;;;;;8.87;4.60;;;7.10;99.90;;;;;;5031091;28;20214;-52
2021/04/25 00:50:53;;;;;;;6.53;3.70;;;7.00;99.90;;;;;;5033471;28;20273;-53
2021/04/25 00:53:22;;;;;;;9.27;4.20;;;6.90;99.90;;;;;;5030400;28;20645;-53
2021/04/25 00:55:50;;;;;;;10.40;4.50;;;6.90;99.90;;;;;;5029724;28;20705;-52
2021/04/25 00:58:16;;;;;;;8.93;4.00;;;7.00;99.90;;;;;;5027663;28;20202;-53
2021/04/25 01:00:43;;;;;;;11.10;4.70;;;7.00;99.90;;;;;;5026236;28;20284;-52
2021/04/25 01:03:09;;;;;;;7.23;4.00;;;7.10;99.90;;;;;;5029659;28;20224;-53
2021/04/25 01:05:36;;;;;;;7.50;4.43;;;7.10;99.90;;;;;;5028296;28;20207;-53
2021/04/25 01:08:03;;;;;;;8.77;4.70;;;7.00;99.90;;;;;;5028824;28;20640;-53
2021/04/25 01:10:30;;;;;;;9.57;4.90;;;7.10;99.90;;;;;;5032633;28;20241;-53
2021/04/25 01:12:58;;;;;;;8.90;4.10;;;7.00;99.90;;;;;;5029767;28;20726;-52
2021/04/25 01:15:25;;;;;;;9.20;5.13;;;6.90;99.90;;;;;;5031431;28;20322;-52
2021/04/25 01:17:51;;;;;;;7.20;4.17;;;6.90;99.90;;;;;;5027715;28;20280;-53
2021/04/25 01:20:20;;;;;;;7.83;4.30;;;6.80;99.90;;;;;;5030700;28;20197;-53
2021/04/25 01:22:47;;;;;;;6.63;4.40;;;6.70;99.90;;;;;;5028765;28;20230;-53
2021/04/25 01:25:15;;;;;;;7.37;4.23;;;6.80;99.90;;;;;;5027782;28;20287;-53
2021/04/25 01:27:42;;;;;;;9.77;4.63;;;6.70;99.90;;;;;;5029403;28;20226;-52
2021/04/25 01:30:11;;;;;;;8.57;3.97;;;6.80;99.90;;;;;;5028378;28;20314;-53
2021/04/25 01:32:42;;;;;;;8.30;4.13;;;6.80;99.90;;;;;;5028292;28;20202;-52
2021/04/25 01:35:14;;;;;;;6.13;3.77;;;6.90;99.90;;;;;;5032045;28;20264;-53
2021/04/25 01:37:40;;;;;;;7.13;3.57;;;6.80;99.90;;;;;;5027940;28;20262;-53
2021/04/25 01:40:08;;;;;;;6.80;3.50;;;6.80;99.90;;;;;;5026812;28;20634;-53
2021/04/25 01:42:34;;;;;;;5.90;3.67;;;6.70;99.90;;;;;;5026063;28;20284;-53
2021/04/25 01:45:01;;;;;;;7.87;3.70;;;6.70;99.90;;;;;;5030970;28;20305;-53
2021/04/25 01:47:28;;;;;;;5.27;3.97;;;6.60;99.90;;;;;;5031343;28;20269;-53
2021/04/25 01:49:54;;;;;;;7.77;4.27;;;6.60;99.90;;;;;;5029122;28;20252;-53
2021/04/25 01:52:21;;;;;;;7.27;3.87;;;6.70;99.90;;;;;;5026560;28;20676;-53
2021/04/25 01:54:47;;;;;;;5.80;3.67;;;6.70;99.90;;;;;;5029850;28;20675;-53
2021/04/25 01:57:13;;;;;;;8.43;4.13;;;6.80;99.90;;;;;;5032601;28;20200;-52
2021/04/25 01:59:40;;;;;;;6.00;3.77;;;6.80;99.90;;;;;;5030740;28;20965;-53
2021/04/25 02:02:06;;;;;;;10.47;3.90;;;6.60;99.90;;;;;;5028445;28;20242;-53
2021/04/25 02:04:32;;;;;;;7.23;4.23;;;6.50;99.90;;;;;;5029746;28;20312;-53
2021/04/25 02:06:59;;;;;;;11.07;3.87;;;6.60;99.90;;;;;;5029974;28;20288;-53
2021/04/25 02:09:25;;;;;;;5.97;3.63;;;6.60;99.90;;;;;;5031942;28;20240;-53
2021/04/25 02:11:52;;;;;;;9.13;4.00;;;6.80;99.90;;;;;;5029923;28;20452;-53
2021/04/25 02:14:18;;;;;;;6.93;4.43;;;6.80;99.90;;;;;;5029456;28;20244;-53
2021/04/25 02:16:44;;;;;;;7.97;3.93;;;6.70;99.90;;;;;;5025854;28;20208;-53
2021/04/25 02:19:11;;;;;;;9.10;3.67;;;6.70;99.90;;;;;;5028165;28;20208;-52
2021/04/25 02:21:37;;;;;;;7.33;3.83;;;6.80;99.90;;;;;;5027354;28;20221;-53
2021/04/25 02:24:04;;;;;;;6.30;3.40;;;6.80;99.90;;;;;;5031403;28;20225;-53
2021/04/25 02:26:30;;;;;;;4.83;3.10;;;6.80;99.90;;;;;;5029767;28;20293;-53
2021/04/25 02:28:56;;;;;;;8.87;4.33;;;6.60;99.90;;;;;;5029428;28;20206;-53
2021/04/25 02:31:22;;;;;;;8.17;4.03;;;6.60;99.90;;;;;;5032591;28;20313;-52
2021/04/25 02:33:49;;;;;;;5.37;3.33;;;6.50;99.90;;;;;;5032774;28;20646;-53
2021/04/25 02:36:19;;;;;;;7.10;3.70;;;6.50;99.90;;;;;;5032430;28;20266;-53
2021/04/25 02:38:45;;;;;;;5.53;3.53;;;6.70;99.90;;;;;;5033003;28;20231;-52
2021/04/25 02:41:11;;;;;;;10.60;3.40;;;6.90;99.90;;;;;;5030268;28;20248;-53
2021/04/25 02:43:38;;;;;;;5.63;3.23;;;6.90;99.90;;;;;;5036458;28;20307;-53
2021/04/25 02:46:04;;;;;;;6.13;3.20;;;6.70;99.90;;;;;;5033570;28;20289;-53
2021/04/25 02:48:30;;;;;;;5.27;3.10;;;6.70;99.90;;;;;;5041683;28;20291;-52
2021/04/25 02:50:57;;;;;;;7.30;3.00;;;6.90;99.90;;;;;;5033236;28;20207;-53
2021/04/25 02:53:23;;;;;;;5.03;2.80;;;6.90;99.90;;;;;;5036635;28;20614;-53
2021/04/25 02:55:49;;;;;;;5.57;3.47;;;7.00;99.90;;;;;;5036779;28;20285;-52
2021/04/25 02:58:15;;;;;;;4.77;2.70;;;6.80;99.90;;;;;;5035072;28;20234;-53
2021/04/25 03:00:42;;;;;;;5.77;3.17;;;6.80;99.90;;;;;;5030856;28;20283;-53
2021/04/25 03:03:08;;;;;;;4.23;3.13;;;6.60;99.90;;;;;;5039506;28;20674;-53
2021/04/25 03:05:35;;;;;;;4.30;3.10;;;6.70;99.90;;;;;;5030696;28;20669;-53
2021/04/25 03:08:01;;;;;;;6.97;3.47;;;6.60;99.90;;;;;;5038687;28;20692;-53
2021/04/25 03:10:28;;;;;;;11.37;3.23;;;6.60;99.90;;;;;;5037752;28;20311;-53
2021/04/25 03:12:54;;;;;;;6.50;3.03;;;6.40;99.90;;;;;;5036998;28;20256;-52
2021/04/25 03:15:21;;;;;;;4.40;2.43;;;6.60;99.90;;;;;;5033517;28;20613;-53
2021/04/25 03:17:49;;;;;;;4.57;2.67;;;6.60;99.90;;;;;;5036168;28;20381;-53
2021/04/25 03:20:17;;;;;;;5.93;2.40;;;6.50;99.90;;;;;;5029694;28;20806;-53
2021/04/25 03:22:45;;;;;;;5.80;2.17;;;6.60;99.90;;;;;;5035011;28;20284;-53
2021/04/25 03:25:12;;;;;;;4.13;2.00;;;6.70;99.90;;;;;;5032189;28;20275;-53
2021/04/25 03:27:39;;;;;;;5.23;2.33;;;6.70;99.90;;;;;;5036620;28;20405;-52
2021/04/25 03:30:08;;;;;;;5.43;2.20;;;6.80;99.90;;;;;;5036352;28;20625;-53
2021/04/25 03:32:37;;;;;;;5.60;2.43;;;6.70;99.90;;;;;;5035831;28;20206;-53
2021/04/25 03:35:06;;;;;;;5.23;2.50;;;6.70;99.90;;;;;;5036065;28;20300;-53
2021/04/25 03:37:33;;;;;;;7.70;3.13;;;6.70;99.90;;;;;;5033879;28;20278;-53
2021/04/25 03:39:59;;;;;;;7.40;3.30;;;6.80;99.90;;;;;;5036060;28;20198;-52
2021/04/25 03:42:26;;;;;;;3.93;2.07;;;6.80;99.90;;;;;;5037827;28;20193;-53
2021/04/25 03:44:52;;;;;;;3.73;2.30;;;6.80;99.90;;;;;;5041057;28;21213;-52
2021/04/25 03:47:19;;;;;;;3.60;2.50;;;6.70;99.90;;;;;;5036016;28;20926;-53
2021/04/25 03:49:45;;;;;;;3.53;2.50;;;6.70;99.90;;;;;;5032224;28;20549;-53
2021/04/25 03:52:12;;;;;;;8.13;2.57;;;6.70;99.90;;;;;;5034685;28;20287;-52
2021/04/25 03:54:38;;;;;;;5.33;2.57;;;6.80;99.90;;;;;;5035930;28;20249;-52
2021/04/25 03:57:05;;;;;;;4.43;2.43;;;6.70;99.90;;;;;;5030435;28;20653;-52
2021/04/25 03:59:32;;;;;;;7.47;2.97;;;6.90;99.90;;;;;;5035078;28;20197;-53
2021/04/25 04:01:59;;;;;;;4.47;2.20;;;6.90;99.90;;;;;;5035393;28;20219;-53
2021/04/25 04:04:25;;;;;;;6.10;2.60;;;6.70;99.90;;;;;;5039417;28;20205;-53
2021/04/25 04:06:51;;;;;;;6.47;2.60;;;6.80;99.90;;;;;;5031076;28;20399;-53
2021/04/25 04:09:18;;;;;;;6.10;2.50;;;6.70;99.90;;;;;;5038756;28;20290;-53
2021/04/25 04:11:45;;;;;;;6.63;2.60;;;6.60;99.90;;;;;;5030343;28;20628;-53
2021/04/25 04:14:12;;;;;;;7.00;2.53;;;6.70;99.90;;;;;;5028319;28;20245;-53
2021/04/25 04:16:38;;;;;;;4.97;2.10;;;6.70;99.90;;;;;;5036299;28;20274;-53
2021/04/25 04:19:05;;;;;;;3.97;2.50;;;6.80;99.90;;;;;;5035305;28;20243;-53
2021/04/25 04:21:33;;;;;;;5.80;2.47;;;6.90;99.90;;;;;;5032953;28;20281;-53
2021/04/25 04:24:00;;;;;;;3.90;2.13;;;7.00;99.90;;;;;;5033520;28;20265;-53
2021/04/25 04:26:26;;;;;;;5.83;2.73;;;7.00;99.90;;;;;;5035759;28;20569;-53
2021/04/25 04:28:52;;;;;;;3.83;2.13;;;7.00;99.90;;;;;;5033989;28;20296;-53
2021/04/25 04:31:19;;;;;;;3.27;2.30;;;7.20;99.90;;;;;;5032862;28;20607;-53
2021/04/25 04:33:46;;;;;;;3.87;2.43;;;7.10;99.90;;;;;;5032784;28;20569;-53
2021/04/25 04:36:14;;;;;;;4.70;2.43;;;7.20;99.90;;;;;;5035528;28;20250;-53
2021/04/25 04:38:40;;;;;;;7.23;3.10;;;7.10;99.00;;;;;;5028417;28;20198;-53
2021/04/25 04:41:06;;;;;;;6.67;2.43;;;7.00;99.90;;;;;;5032198;28;20240;-53
2021/04/25 04:43:33;;;;;;;7.13;2.70;;;7.00;99.90;;;;;;5035362;28;20213;-53
2021/04/25 04:45:59;;;;;;;7.40;3.00;;;7.00;99.90;;;;;;5029769;28;20315;-53
2021/04/25 04:48:25;;;;;;;3.90;2.70;;;7.00;99.90;;;;;;5035581;28;20294;-53
2021/04/25 04:50:52;;;;;;;6.53;2.93;;;7.10;99.90;;;;;;5036668;28;20672;-53
2021/04/25 04:53:18;;;;;;;10.10;2.63;;;7.10;99.90;;;;;;5034073;28;20288;-53
2021/04/25 04:55:44;;;;;;;6.53;2.57;;;7.00;99.70;;;;;;5033004;28;20547;-53
2021/04/25 04:58:11;;;;;;;4.57;2.53;;;6.80;99.90;;;;;;5030786;28;20228;-53
2021/04/25 05:00:37;;;;;;;7.83;2.63;;;7.00;99.90;;;;;;5032116;28;20288;-53
2021/04/25 05:03:04;;;;;;;7.30;2.33;;;7.10;98.90;;;;;;5036527;28;20284;-53
2021/04/25 05:05:30;;;;;;;5.83;2.70;;;7.10;99.90;;;;;;5032468;28;20297;-53
2021/04/25 05:07:59;;;;;;;3.97;2.13;;;7.20;99.90;;;;;;5033482;28;20577;-53
2021/04/25 05:10:25;;;;;;;4.97;2.47;;;7.30;99.90;;;;;;5035367;28;20230;-53
2021/04/25 05:12:52;;;;;;;5.37;2.83;;;7.30;99.60;;;;;;5034361;28;20323;-53
2021/04/25 05:15:18;;;;;;;4.57;2.73;;;7.30;98.30;;;;;;5031938;28;20219;-53
2021/04/25 05:17:44;;;;;;;5.97;2.40;;;7.30;99.70;;;;;;5032538;28;20284;-53
2021/04/25 05:20:11;;;;;;;6.03;2.60;;;7.40;99.90;;;;;;5029486;28;20289;-53
2021/04/25 05:22:38;;;;;;;4.47;2.40;;;7.30;99.40;;;;;;5032015;28;20208;-53
2021/04/25 05:25:05;;;;;;;4.97;2.50;;;7.20;99.80;;;;;;5033804;28;20238;-53
2021/04/25 05:27:31;;;;;;;5.10;2.73;;;7.00;99.90;;;;;;5037372;28;20223;-52
2021/04/25 05:29:57;;;;;;;7.00;2.30;;;7.30;99.90;;;;;;5029298;28;20208;-53
2021/04/25 05:32:24;;;;;;;5.77;2.30;;;7.40;99.90;;;;;;5036039;28;20282;-53
2021/04/25 05:34:50;;;;;;;4.37;2.60;;;7.30;99.90;;;;;;5034712;28;20243;-53
2021/04/25 05:37:17;;;;;;;5.27;2.77;;;7.20;99.90;;;;;;5029227;28;20196;-52
2021/04/25 05:39:43;;;;;;;5.30;2.17;;;7.30;99.90;;;;;;5038073;28;21311;-53
2021/04/25 05:42:09;;;;;;;4.67;2.47;;;7.20;99.70;;;;;;5033228;28;20315;-53
2021/04/25 05:44:36;;;;;;;3.37;2.10;;;7.00;99.90;;;;;;5035448;28;20237;-53
2021/04/25 05:47:02;;;;;;;5.53;2.47;;;6.90;99.90;;;;;;5035693;28;20275;-53
2021/04/25 05:49:29;;;;;;;4.90;2.40;;;7.10;99.50;;;;;;5032383;28;20682;-53
2021/04/25 05:51:56;;;;;;;3.87;2.10;;;7.10;99.90;;;;;;5034860;28;20213;-53
2021/04/25 05:54:22;;;;;;;6.63;3.10;;;7.20;99.90;;;;;;5037166;28;20844;-53
2021/04/25 05:56:48;;;;;;;11.40;2.67;;;7.20;99.70;;;;;;5032872;28;20267;-53
2021/04/25 05:59:14;;;;;;;7.03;2.50;;;7.30;99.20;;;;;;5038452;28;20235;-53
2021/04/25 06:01:41;;;;;;;3.20;2.00;;;7.10;99.90;;;;;;5026903;28;20287;-53
2021/04/25 06:04:07;;;;;;;8.07;2.70;;;7.20;99.90;;;;;;5035964;28;20237;-53
2021/04/25 06:06:34;;;;;;;3.93;2.33;;;7.30;98.70;;;;;;5032630;28;20311;-53
2021/04/25 06:09:00;;;;;;;5.27;1.70;;;7.20;96.20;;;;;;5039343;28;20243;-53
2021/04/25 06:11:26;;;;;;;2.33;1.60;;;7.20;95.40;;;;;;5034238;28;20596;-53
2021/04/25 06:13:53;;;;;;;3.90;2.10;;;7.10;94.50;;;;;;5031461;28;20239;-53
2021/04/25 06:16:20;;;;;;;3.70;1.97;;;7.20;94.00;;;;;;5029096;28;20643;-52
2021/04/25 06:18:47;;;;;;;4.43;2.10;;;7.10;93.10;;;;;;5036730;28;20230;-53
2021/04/25 06:21:13;;;;;;;4.57;1.97;;;7.00;93.20;;;;;;5030361;28;20682;-53
2021/04/25 06:23:39;;;;;;;4.70;1.70;;;6.90;93.40;;;;;;5039190;28;20287;-53
2021/04/25 06:26:06;;;;;;;8.10;2.10;;;6.90;93.20;;;;;;5037462;28;20267;-53
2021/04/25 06:28:32;;;;;;;2.77;1.93;;;7.00;95.10;;;;;;5036056;28;20208;-53
2021/04/25 06:30:59;;;;;;;3.63;2.20;;;6.90;95.60;;;;;;5032643;28;20631;-53
2021/04/25 06:33:25;;;;;;;3.33;1.87;;;6.90;94.30;;;;;;5021846;28;20620;-53
2021/04/25 06:35:52;;;;;;;3.00;2.10;;;7.00;95.60;;;;;;5033640;28;20299;-52
2021/04/25 06:38:19;;;;;;;3.30;1.87;;;7.00;93.60;;;;;;5036976;28;20202;-53
2021/04/25 06:40:45;;;;;;;3.77;1.83;;;7.10;93.30;;;;;;5034920;28;20479;-53
2021/04/25 06:43:11;;;;;;;1.90;1.23;;;7.10;92.50;;;;;;5039428;28;20229;-52
2021/04/25 06:45:38;;;;;;;3.53;1.90;;;6.90;92.10;;;;;;5034515;28;20608;-53
2021/04/25 06:48:04;;;;;;;5.57;1.57;;;7.00;92.30;;;;;;5035191;28;20293;-52
2021/04/25 06:50:31;;;;;;;4.60;1.90;;;7.20;92.40;;;;;;5039095;28;20279;-52
2021/04/25 06:52:57;;;;;;;4.00;1.70;;;7.30;92.60;;;;;;5039486;28;20558;-52
2021/04/25 06:55:24;;;;;;;5.63;2.20;;;7.20;91.30;;;;;;5035515;28;20213;-52
2021/04/25 06:57:51;;;;;;;9.80;2.43;;;7.30;90.50;;;;;;5037052;28;20670;-52
2021/04/25 07:00:20;;;;;;;5.33;2.03;;;7.30;90.00;;;;;;5036049;28;20230;-52
2021/04/25 07:02:47;;;;;;;1.90;1.53;;;7.30;90.70;;;;;;5035139;28;20229;-54
2021/04/25 07:05:14;;;;;;;4.47;2.03;;;7.40;91.30;;;;;;5031740;28;20879;-51
2021/04/25 07:07:41;;;;;;;3.57;1.23;;;7.60;90.80;;;;;;5039066;28;20235;-52
2021/04/25 07:10:08;;;;;;;3.77;1.43;;;7.80;89.30;;;;;;5033487;28;20209;-52
2021/04/25 07:12:35;;;;;;;3.33;1.50;;;7.50;88.30;;;;;;5039507;28;20882;-52
2021/04/25 07:15:02;;;;;;;5.57;1.90;;;7.70;89.40;;;;;;5032311;28;20525;-52
2021/04/25 07:17:29;;;;;;;5.33;1.93;;;7.60;87.80;;;;;;5035968;28;20247;-52
2021/04/25 07:19:55;;;;;;;3.90;1.93;;;7.70;86.90;;;;;;5034709;28;20701;-52
2021/04/25 07:22:22;;;;;;;1.60;1.47;;;7.70;84.80;;;;;;5033047;28;20308;-54
2021/04/25 07:24:49;;;;;;;5.63;1.97;;;7.60;85.80;;;;;;5035216;28;20887;-52
2021/04/25 07:27:18;;;;;;;9.07;2.00;;;7.70;85.10;;;;;;5038099;28;20556;-51
2021/04/25 07:29:45;;;;;;;2.07;1.60;;;7.80;84.20;;;;;;5034501;28;20209;-54
2021/04/25 07:32:12;;;;;;;3.80;1.90;;;7.90;82.60;;;;;;5036008;28;20225;-52
2021/04/25 07:34:38;;;;;;;4.70;2.30;;;8.00;81.20;;;;;;5032469;28;20221;-52
2021/04/25 07:37:05;;;;;;;4.87;1.90;;;7.90;84.30;;;;;;5037607;28;20232;-52
2021/04/25 07:39:35;;;;;;;6.83;1.77;;;7.70;83.70;;;;;;5033396;28;20235;-52
2021/04/25 07:42:03;;;;;;;6.17;1.93;;;7.80;84.40;;;;;;5029707;28;20302;-51
2021/04/25 07:44:30;;;;;;;3.83;1.73;;;7.90;84.50;;;;;;5037027;28;20569;-52
2021/04/25 07:46:56;;;;;;;3.10;1.77;;;7.80;83.20;;;;;;5037375;28;20206;-52
2021/04/25 07:49:23;;;;;;;5.53;1.70;;;7.90;84.90;;;;;;5036114;28;20193;-52
2021/04/25 07:51:50;;;;;;;4.73;2.20;;;8.10;82.10;;;;;;5034060;28;20267;-52
2021/04/25 07:54:16;;;;;;;3.37;2.17;;;8.20;80.10;;;;;;5034485;28;20327;-52
2021/04/25 07:56:42;;;;;;;2.10;1.40;;;8.10;78.70;;;;;;5031921;28;20642;-52
2021/04/25 07:59:09;;;;;;;5.97;1.97;;;8.10;79.60;;;;;;5038075;28;20729;-52
2021/04/25 08:01:35;;;;;;;5.00;1.90;;;8.30;76.00;;;;;;5033854;28;20212;-52
2021/04/25 08:04:02;;;;;;;10.10;2.33;;;8.20;77.50;;;;;;5036751;28;20193;-52
2021/04/25 08:06:28;;;;;;;3.30;2.03;;;8.40;77.30;;;;;;5031779;28;20636;-55
2021/04/25 08:08:55;;;;;;;5.03;1.50;;;8.30;73.30;;;;;;5033331;28;20601;-52
2021/04/25 08:11:22;;;;;;;4.93;1.93;;;8.20;77.50;;;;;;5037108;28;20231;-51
2021/04/25 08:13:48;;;;;;;6.17;2.17;;;8.20;77.20;;;;;;5038607;28;20345;-52
2021/04/25 08:16:14;;;;;;;4.63;1.80;;;8.40;77.80;;;;;;5033137;28;20196;-52
2021/04/25 08:18:41;;;;;;;3.83;1.60;;;8.70;75.10;;;;;;5036950;28;20567;-52
2021/04/25 08:21:07;;;;;;;7.73;2.00;;;8.60;73.10;;;;;;5034266;28;20583;-52
2021/04/25 08:23:35;;;;;;;1.90;1.50;;;8.50;72.50;;;;;;5032190;28;20200;-55
2021/04/25 08:26:03;;;;;;;4.57;1.63;;;8.30;73.30;;;;;;5033234;28;20288;-52
2021/04/25 08:28:29;;;;;;;5.83;2.77;;;8.30;74.30;;;;;;5033877;28;20201;-52
2021/04/25 08:30:56;;;;;;;4.80;2.07;;;8.20;75.90;;;;;;5036495;28;20264;-52
2021/04/25 08:33:23;;;;;;;6.60;1.90;;;8.70;74.60;;;;;;5034852;28;20199;-52
2021/04/25 08:35:49;;;;;;;4.67;1.57;;;8.60;71.20;;;;;;5030659;28;20281;-52
2021/04/25 08:38:15;;;;;;;4.87;2.30;;;8.80;71.60;;;;;;5032158;28;20207;-52
2021/04/25 08:40:42;;;;;;;2.27;1.63;;;8.70;72.10;;;;;;5035855;28;20289;-52
2021/04/25 08:43:12;;;;;;;3.00;1.63;;;8.50;72.40;;;;;;5030127;28;20312;-52
2021/04/25 08:45:45;;;;;;;8.37;1.80;;;8.40;72.20;;;;;;5033972;28;20742;-52
2021/04/25 08:48:13;;;;;;;2.50;1.60;;;8.70;71.90;;;;;;5031667;28;20236;-52
2021/04/25 08:50:41;;;;;;;4.77;1.67;;;9.00;69.10;;;;;;5035725;28;20254;-52
2021/04/25 08:53:09;;;;;;;6.73;1.97;;;9.00;69.70;;;;;;5030980;28;20220;-55
2021/04/25 08:55:36;;;;;;;3.13;1.37;;;9.10;66.70;;;;;;5033008;28;20207;-53
2021/04/25 08:58:07;;;;;;;4.60;1.53;;;9.10;68.90;;;;;;5035765;28;20200;-52
2021/04/25 09:00:34;;;;;;;3.53;1.90;;;8.90;67.50;;;;;;5029463;28;20224;-52
2021/04/25 09:03:01;;;;;;;5.47;1.70;;;9.10;67.50;;;;;;5032092;28;20243;-52
2021/04/25 09:05:28;;;;;;;4.33;1.30;;;9.10;64.90;;;;;;5032694;28;20203;-55
2021/04/25 09:08:01;;;;;;;8.07;2.03;;;9.40;65.20;;;;;;5028204;28;20215;-57
2021/04/25 09:10:41;;;;;;;6.53;1.80;;;9.10;62.90;;;;;;5029761;28;20769;-52
2021/04/25 09:13:20;;;;;;;2.90;1.23;;;9.60;65.60;;;;;;5030102;28;20602;-49
2021/04/25 09:15:47;;;;;;;4.13;2.03;;;9.90;61.20;;;;;;5030999;28;20212;-49
2021/04/25 09:18:14;;;;;;;4.77;1.70;;;10.20;62.00;;;;;;5030766;28;20229;-53
2021/04/25 09:20:40;;;;;;;5.10;1.50;;;10.90;55.20;;;;;;5035727;28;20227;-52
2021/04/25 09:23:10;;;;;;;3.87;1.20;;;10.80;51.90;;;;;;5024780;28;20294;-49
2021/04/25 09:25:37;;;;;;;3.27;1.47;;;10.40;53.70;;;;;;5031095;28;20285;-49
2021/04/25 09:28:15;;;;;;;7.03;1.63;;;10.20;54.30;;;;;;5029667;28;20614;-49
2021/04/25 09:30:58;;;;;;;2.97;1.70;;;10.00;55.80;;;;;;5026416;28;20327;-49
2021/04/25 09:33:27;;;;;;;2.47;1.20;;;9.90;56.20;;;;;;5028919;28;20200;-49
2021/04/25 09:35:57;;;;;;;3.20;1.50;;;9.80;57.30;;;;;;5027324;28;20243;-49
2021/04/25 09:38:32;;;;;;;4.70;1.80;;;9.70;57.70;;;;;;5022381;28;20201;-49
2021/04/25 09:40:58;;;;;;;3.33;1.57;;;9.90;58.30;;;;;;5027986;28;20292;-49
2021/04/25 09:43:25;;;;;;;3.83;1.70;;;9.80;58.20;;;;;;5026907;28;20224;-49
2021/04/25 09:45:57;;;;;;;5.50;1.53;;;9.60;58.20;;;;;;5028376;28;20377;-49
2021/04/25 09:48:27;;;;;;;3.83;1.07;;;9.60;57.90;;;;;;5027061;28;20216;-49
2021/04/25 09:51:14;;;;;;;5.57;1.60;;;9.80;57.90;;;;;;5029902;28;20294;-49
2021/04/25 09:53:56;;;;;;;3.47;1.60;;;9.80;57.80;;;;;;5031752;28;20714;-49
2021/04/25 09:56:35;;;;;;;2.07;1.43;;;10.20;60.00;;;;;;5032388;28;20232;-49
2021/04/25 09:59:06;;;;;;;4.07;1.50;;;10.70;53.70;;;;;;5034174;28;20215;-49
2021/04/25 10:01:35;;;;;;;3.07;1.40;;;10.80;51.80;;;;;;5029534;28;20628;-49
2021/04/25 10:04:04;;;;;;;5.20;1.27;;;10.60;52.90;;;;;;5032729;28;20209;-49
2021/04/25 10:06:52;;;;;;;5.33;1.63;;;10.50;52.10;;;;;;5032560;28;20235;-49
2021/04/25 10:09:19;;;;;;;4.43;1.47;;;10.90;50.50;;;;;;5034916;28;20633;-49
2021/04/25 10:11:51;;;;;;;1.87;1.27;;;10.30;49.10;;;;;;5034360;28;20237;-51
2021/04/25 10:14:18;;;;;;;2.57;1.20;;;10.40;50.50;;;;;;5033159;28;20261;-49
2021/04/25 10:16:45;;;;;;;3.43;1.10;;;10.70;50.70;;;;;;5036044;28;20597;-50
2021/04/25 10:19:12;;;;;;;5.87;2.37;;;10.50;50.50;;;;;;5027106;28;20235;-49
2021/04/25 10:21:41;;;;;;;5.33;1.47;;;10.30;52.90;;;;;;5027003;28;20262;-50
2021/04/25 10:24:08;;;;;;;3.67;1.43;;;10.60;51.40;;;;;;5028105;28;20258;-49
2021/04/25 10:26:46;;;;;;;2.87;1.40;;;10.40;53.10;;;;;;5033375;28;20224;-50
2021/04/25 10:29:16;;;;;;;6.20;1.70;;;10.30;53.00;;;;;;5030709;28;20231;-49
2021/04/25 10:31:43;;;;;;;5.30;1.80;;;10.40;52.60;;;;;;5037738;28;20229;-50
2021/04/25 10:34:22;;;;;;;6.60;1.50;;;10.30;54.90;;;;;;5026413;28;20637;-49
2021/04/25 10:36:50;;;;;;;3.90;1.43;;;10.90;52.00;;;;;;5031365;28;20273;-49
2021/04/25 10:39:37;;;;;;;5.37;1.80;;;11.60;46.60;;;;;;5036144;28;20719;-49
2021/04/25 10:42:29;;;;;;;9.87;2.33;;;11.70;45.20;;;;;;5030254;28;20750;-50
2021/04/25 10:44:58;;;;;;;5.37;2.00;;;11.40;43.40;;;;;;5035754;28;20281;-50
2021/04/25 10:47:27;;;;;;;40.07;25.07;;;11.10;45.40;;;;;;5029275;28;20192;-50
2021/04/25 10:49:55;;;;;;;6.53;3.97;;;11.30;45.30;;;;;;5038474;28;20637;-49
2021/04/25 10:52:34;;;;;;;41.10;25.10;;;11.80;42.90;;;;;;5034773;28;20351;-49
2021/04/25 10:57:51;;;;;;;241.87;167.60;;;12.60;38.50;;;;;;5036263;28;20645;-49
2021/04/25 11:03:18;;;;;;;9.17;3.07;;;13.40;38.40;;;;;;5033592;28;20629;-49
2021/04/25 11:05:46;;;;;;;11.93;8.57;;;13.30;34.30;;;;;;5037911;28;20232;-50
2021/04/25 11:08:13;;;;;;;6.70;2.33;;;13.70;33.20;;;;;;5038666;28;20249;-50
2021/04/25 11:10:47;;;;;;;8.33;1.97;;;13.70;32.80;;;;;;5033978;28;20212;-49
2021/04/25 11:13:35;;;;;;;4.40;2.00;;;13.70;34.00;;;;;;5036771;28;20617;-50
2021/04/25 11:16:13;;;;;;;4.10;1.43;;;14.60;28.70;;;;;;5038082;28;20211;-50
2021/04/25 11:18:54;;;;;;;5.40;1.80;;;14.30;26.50;;;;;;5040143;28;20211;-50
2021/04/25 11:21:28;;;;;;;2.83;1.33;;;13.30;28.30;;;;;;5035821;28;20385;-50
2021/04/25 11:24:06;;;;;;;3.70;1.67;;;13.70;30.00;;;;;;5035440;28;20206;-50
2021/04/25 11:26:39;;;;;;;5.43;1.60;;;13.70;29.20;;;;;;5040699;28;20245;-50
2021/04/25 11:29:24;;;;;;;3.90;1.70;;;13.80;28.60;;;;;;5036787;28;20258;-50
2021/04/25 11:31:54;;;;;;;5.67;1.70;;;12.80;30.30;;;;;;5032928;28;20316;-50
2021/04/25 11:36:53;;;;;;;5.30;1.33;;;12.80;32.30;;;;;;5038123;28;20209;-49
2021/04/25 11:39:22;;;;;;;4.87;1.77;;;12.70;34.80;;;;;;5036234;28;20200;-49
2021/04/25 11:41:50;;;;;;;2.73;1.50;;;13.20;30.50;;;;;;5035952;28;20947;-49
2021/04/25 11:44:34;;;;;;;5.23;1.70;;;13.30;32.10;;;;;;5039516;28;20205;-49
2021/04/25 11:47:07;;;;;;;6.40;1.70;;;13.40;31.00;;;;;;5032266;28;20292;-50
2021/04/25 11:49:45;;;;;;;6.57;1.70;;;13.20;30.10;;;;;;5037524;28;20514;-49
2021/04/25 11:52:23;;;;;;;2.50;1.50;;;13.20;30.30;;;;;;5038831;28;20203;-49
2021/04/25 11:55:16;;;;;;;1.70;1.50;;;13.30;29.80;;;;;;5038555;28;20296;-49
2021/04/25 11:57:49;;;;;;;3.13;1.53;;;12.90;29.60;;;;;;5040023;28;20222;-50
2021/04/25 12:00:24;;;;;;;4.90;1.73;;;13.00;32.10;;;;;;5032519;28;20249;-49
2021/04/25 12:02:56;;;;;;;3.73;2.10;;;14.10;30.00;;;;;;5034316;28;20209;-50
2021/04/25 12:05:28;;;;;;;7.10;2.00;;;13.20;29.60;;;;;;5039312;28;20643;-49
2021/04/25 12:08:03;;;;;;;3.13;1.33;;;12.70;32.00;;;;;;5034463;28;20202;-50
2021/04/25 12:10:33;;;;;;;3.67;1.60;;;12.60;32.50;;;;;;5034448;28;20203;-50
2021/04/25 12:13:10;;;;;;;4.73;1.70;;;12.60;33.10;;;;;;5036294;28;20236;-50
2021/04/25 12:15:51;;;;;;;3.90;1.70;;;12.90;31.40;;;;;;5043588;28;20316;-50
2021/04/25 12:18:38;;;;;;;4.40;1.40;;;13.20;31.30;;;;;;5039838;28;20205;-50
2021/04/25 12:21:07;;;;;;;5.53;1.80;;;13.50;30.80;;;;;;5028809;28;20195;-50
2021/04/25 12:23:42;;;;;;;8.03;1.70;;;13.20;29.90;;;;;;5037309;28;20261;-49
2021/04/25 12:26:10;;;;;;;4.03;2.10;;;13.10;30.10;;;;;;5030985;28;20628;-50
2021/04/25 12:28:38;;;;;;;4.23;1.60;;;13.90;28.60;;;;;;5030047;28;20288;-50
2021/04/25 12:31:06;;;;;;;3.80;1.50;;;13.50;29.40;;;;;;5029138;28;20229;-50
2021/04/25 12:33:37;;;;;;;3.53;1.63;;;13.60;27.40;;;;;;5028745;28;20208;-50
2021/04/25 12:36:05;;;;;;;2.20;1.57;;;14.10;26.30;;;;;;5029935;28;20213;-50
2021/04/25 12:38:33;;;;;;;2.30;1.50;;;14.60;26.10;;;;;;5033200;28;20296;-50
2021/04/25 12:41:06;;;;;;;2.10;1.37;;;14.80;23.90;;;;;;5034300;28;20223;-50
2021/04/25 12:43:38;;;;;;;6.60;1.73;;;14.80;22.40;;;;;;5029909;28;20306;-50
2021/04/25 12:46:14;;;;;;;8.03;1.53;;;14.50;23.60;;;;;;5035863;28;20306;-50
2021/04/25 12:48:48;;;;;;;2.70;1.80;;;15.20;23.30;;;;;;5036116;28;20269;-50
2021/04/25 12:51:22;;;;;;;4.63;1.83;;;14.90;21.60;;;;;;5030864;28;20219;-50
2021/04/25 12:53:58;;;;;;;4.30;1.80;;;14.50;23.60;;;;;;5033236;28;20201;-50
2021/04/25 12:56:27;;;;;;;3.83;1.60;;;14.90;23.40;;;;;;5031859;28;20216;-50
2021/04/25 12:58:59;;;;;;;7.77;1.83;;;14.70;21.30;;;;;;5030431;28;20195;-50
2021/04/25 13:01:27;;;;;;;7.90;2.03;;;15.10;21.20;;;;;;5034150;28;20193;-51
2021/04/25 13:03:54;;;;;;;4.40;1.60;;;14.90;20.80;;;;;;5032786;28;20287;-50
2021/04/25 13:06:39;;;;;;;5.03;1.77;;;14.70;21.50;;;;;;5033284;28;20213;-50
2021/04/25 13:09:15;;;;;;;3.67;1.60;;;13.80;22.80;;;;;;5034798;28;20255;-50